Time;durP1;ratioP1;P1;durP2;ratioP2;P2;SDS_P1;SDS_P2;PMS_P1;PMS_P2;Temp;Humidity;BMP_temperature;BMP_pressure;BME280_temperature;BME280_humidity;BME280_pressure;Samples;Min_cycle;Max_cycle;Signal;HPM_P1;HPM_P2
2021/11/29 00:00:10;;;;;;;38.60;20.83;;;;;;;11.77;69.59;92981.91;4892357;29;20033;-79
2021/11/29 00:02:36;;;;;;;32.15;19.45;;;;;;;11.74;69.75;92988.47;4888376;29;20036;-80
2021/11/29 00:05:01;;;;;;;32.60;20.15;;;;;;;11.76;69.67;92965.53;4889108;29;20052;-80
2021/11/29 00:07:27;;;;;;;35.58;20.13;;;;;;;11.59;69.51;92960.81;4889226;29;20066;-80
2021/11/29 00:09:52;;;;;;;33.20;18.67;;;;;;;11.68;69.71;92979.16;4859023;29;20073;-80
2021/11/29 00:12:18;;;;;;;33.70;19.77;;;;;;;11.68;70.46;92989.59;4895213;29;20040;-80
2021/11/29 00:14:43;;;;;;;32.75;19.30;;;;;;;11.71;70.01;92973.41;4889382;29;20040;-80
2021/11/29 00:17:09;;;;;;;33.00;20.38;;;;;;;11.63;70.48;92993.03;4880343;29;20025;-80
2021/11/29 00:19:34;;;;;;;35.55;21.48;;;;;;;11.61;70.22;92983.97;4889449;29;20400;-80
2021/11/29 00:22:00;;;;;;;33.00;21.65;;;;;;;11.62;70.34;92985.53;4889703;29;20064;-80
2021/11/29 00:24:25;;;;;;;32.38;19.40;;;;;;;11.65;70.40;92995.38;4886772;29;20036;-80
2021/11/29 00:26:51;;;;;;;29.67;17.10;;;;;;;11.64;70.18;92986.00;4871586;29;20413;-80
2021/11/29 00:29:16;;;;;;;29.38;17.63;;;;;;;11.69;69.63;92962.50;4887323;29;20044;-80
2021/11/29 00:31:42;;;;;;;25.80;17.45;;;;;;;11.72;70.63;92974.97;4880832;29;20045;-80
2021/11/29 00:34:09;;;;;;;26.98;17.63;;;;;;;11.72;70.86;92969.75;4884499;29;20037;-80
2021/11/29 00:36:34;;;;;;;21.55;14.27;;;;;;;11.68;69.37;92976.56;4893148;29;20028;-80
2021/11/29 00:39:00;;;;;;;32.05;17.38;;;;;;;11.78;69.24;92979.03;4892419;29;20069;-82
2021/11/29 00:41:25;;;;;;;29.88;18.05;;;;;;;11.83;69.55;92959.97;4875796;29;20461;-82
2021/11/29 00:43:51;;;;;;;43.70;21.15;;;;;;;11.85;69.42;92943.00;4886239;29;20032;-79
2021/11/29 00:46:16;;;;;;;38.40;20.40;;;;;;;11.90;69.94;92948.16;4875211;29;20037;-82
2021/11/29 00:48:42;;;;;;;35.60;19.95;;;;;;;11.94;69.35;92945.75;4873418;29;20121;-79
2021/11/29 00:51:07;;;;;;;37.53;21.17;;;;;;;11.95;70.12;92955.09;4887369;29;20033;-80
2021/11/29 00:53:33;;;;;;;36.88;21.08;;;;;;;11.96;70.03;92956.66;4889072;29;20039;-79
2021/11/29 00:55:58;;;;;;;28.45;18.73;;;;;;;11.92;70.11;92948.63;4858917;29;20036;-79
2021/11/29 00:58:24;;;;;;;35.25;20.02;;;;;;;11.95;70.01;92947.28;4888020;29;20474;-80
2021/11/29 01:00:57;;;;;;;35.67;19.05;;;;;;;11.94;69.77;92951.72;4887225;29;20051;-79
2021/11/29 01:03:22;;;;;;;38.10;19.75;;;;;;;11.98;70.09;92960.50;4885731;29;20077;-79
2021/11/29 01:05:47;;;;;;;38.13;20.60;;;;;;;11.93;70.12;92972.84;4890377;29;20041;-81
2021/11/29 01:10:48;;;;;;;41.03;21.65;;;;;;;11.94;70.83;92975.16;5184155;23;20493;-80
2021/11/29 01:13:14;;;;;;;49.60;24.15;;;;;;;11.96;70.80;92970.44;4914635;29;20032;-80
2021/11/29 01:15:39;;;;;;;43.22;23.67;;;;;;;11.95;70.72;92957.72;4891966;29;20424;-80
2021/11/29 01:18:09;;;;;;;35.90;20.67;;;;;;;11.98;71.00;92963.13;4901943;29;20044;-80
2021/11/29 01:20:36;;;;;;;39.65;20.98;;;;;;;12.01;70.79;92962.53;4895345;29;20064;-79
2021/11/29 01:23:01;;;;;;;22.75;13.60;;;;;;;11.99;69.06;92956.06;4911117;29;20040;-80
2021/11/29 01:25:27;;;;;;;24.77;14.77;;;;;;;11.95;69.96;92942.09;4909362;29;20040;-80
2021/11/29 01:27:52;;;;;;;25.02;13.70;;;;;;;11.72;70.56;92928.09;4896113;29;20040;-80
2021/11/29 01:30:18;;;;;;;24.48;15.70;;;;;;;11.68;71.30;92921.91;4913526;29;20063;-79
2021/11/29 01:32:43;;;;;;;26.02;14.93;;;;;;;11.55;72.25;92927.81;4915454;29;20032;-80
2021/11/29 01:35:09;;;;;;;21.63;14.05;;;;;;;11.46;72.29;92929.53;4894880;29;20040;-80
2021/11/29 01:37:35;;;;;;;23.27;13.90;;;;;;;11.30;73.03;92927.16;4874168;29;20552;-79
2021/11/29 01:40:03;;;;;;;26.52;14.80;;;;;;;11.24;73.71;92925.69;4880661;29;20057;-79
2021/11/29 01:42:28;;;;;;;22.33;14.95;;;;;;;11.24;74.27;92917.88;4880782;29;20032;-80
2021/11/29 01:45:06;;;;;;;21.10;14.00;;;;;;;11.19;74.48;92924.94;4903590;29;20040;-79
2021/11/29 01:47:31;;;;;;;24.95;14.98;;;;;;;11.10;74.75;92911.81;4914055;29;20039;-80
2021/11/29 01:49:57;;;;;;;21.08;14.13;;;;;;;11.18;74.36;92903.38;4909039;29;20036;-79
2021/11/29 01:52:22;;;;;;;28.35;16.52;;;;;;;11.16;73.98;92900.28;4910126;29;20037;-80
2021/11/29 01:54:48;;;;;;;23.08;13.32;;;;;;;11.27;74.67;92899.09;4909437;29;20181;-81
2021/11/29 01:57:13;;;;;;;20.02;13.32;;;;;;;11.37;74.16;92891.13;4914334;29;20464;-81
2021/11/29 01:59:39;;;;;;;23.60;13.43;;;;;;;11.48;73.96;92898.78;4900802;29;20039;-81
2021/11/29 02:02:04;;;;;;;17.30;12.75;;;;;;;11.41;73.72;92901.75;4894334;29;20036;-81
2021/11/29 02:04:30;;;;;;;23.20;13.88;;;;;;;11.43;74.32;92908.22;4872548;29;20048;-80
2021/11/29 02:06:56;;;;;;;21.40;13.73;;;;;;;11.48;73.79;92896.94;4903855;29;20035;-80
2021/11/29 02:09:22;;;;;;;26.52;14.07;;;;;;;11.37;73.89;92901.53;4903607;29;20061;-80
2021/11/29 02:11:47;;;;;;;25.05;14.63;;;;;;;11.40;74.45;92898.38;4895065;29;20032;-81
2021/11/29 02:14:12;;;;;;;20.17;13.57;;;;;;;11.43;74.63;92890.00;4918476;29;20056;-81
2021/11/29 02:16:44;;;;;;;21.27;13.77;;;;;;;11.52;73.73;92871.13;4895156;29;20036;-78
2021/11/29 02:19:09;;;;;;;22.73;13.27;;;;;;;11.51;73.00;92859.94;4915490;29;20043;-81
2021/11/29 02:21:35;;;;;;;19.35;12.30;;;;;;;11.47;73.56;92873.81;4916719;29;20072;-81
2021/11/29 02:24:04;;;;;;;18.88;12.88;;;;;;;11.48;73.18;92854.53;4876394;29;20039;-81
2021/11/29 02:26:31;;;;;;;17.70;12.38;;;;;;;11.36;73.72;92863.56;4904013;29;20047;-81
2021/11/29 02:28:57;;;;;;;19.17;12.52;;;;;;;11.34;74.01;92868.28;4910737;29;20040;-81
2021/11/29 02:31:27;;;;;;;17.60;12.45;;;;;;;11.36;74.09;92873.97;4911940;29;20424;-82
2021/11/29 02:33:52;;;;;;;21.35;12.13;;;;;;;11.39;74.02;92870.81;4920055;29;20115;-81
2021/11/29 02:36:18;;;;;;;19.60;12.30;;;;;;;11.51;73.54;92872.19;4895146;29;20044;-81
2021/11/29 02:38:43;;;;;;;19.40;12.63;;;;;;;11.48;73.49;92862.34;4903276;29;20493;-81
2021/11/29 02:41:09;;;;;;;26.45;12.30;;;;;;;11.55;73.83;92865.34;4887242;29;20039;-81
2021/11/29 02:43:34;;;;;;;21.77;11.73;;;;;;;11.60;73.43;92857.47;4916507;29;20039;-80
2021/11/29 02:46:00;;;;;;;17.90;12.23;;;;;;;11.66;73.69;92864.13;4918165;29;20040;-81
2021/11/29 02:48:43;;;;;;;17.52;12.13;;;;;;;11.72;73.34;92863.78;4891123;29;20039;-82
2021/11/29 02:51:32;;;;;;;20.25;12.80;;;;;;;11.71;72.64;92857.03;4903294;29;20116;-80
2021/11/29 02:54:14;;;;;;;19.23;11.43;;;;;;;11.79;72.68;92850.41;4893415;29;20067;-81
2021/11/29 02:56:41;;;;;;;17.02;12.10;;;;;;;11.79;72.56;92831.41;4886359;29;20048;-81
2021/11/29 02:59:15;;;;;;;19.42;12.25;;;;;;;11.73;72.65;92851.53;4912428;29;20032;-80
2021/11/29 03:01:41;;;;;;;18.45;12.25;;;;;;;11.77;72.83;92852.50;4886472;29;20036;-80
2021/11/29 03:04:07;;;;;;;24.55;13.30;;;;;;;11.75;72.79;92862.44;4921100;29;20504;-81
2021/11/29 03:06:32;;;;;;;20.70;13.82;;;;;;;11.81;72.98;92844.91;4913607;29;20042;-81
2021/11/29 03:08:58;;;;;;;18.42;12.55;;;;;;;11.74;71.89;92814.03;4889247;29;20067;-80
2021/11/29 03:11:25;;;;;;;20.73;13.10;;;;;;;11.64;73.40;92854.00;4880974;29;20565;-81
2021/11/29 03:13:50;;;;;;;22.00;14.80;;;;;;;11.62;73.70;92865.78;4881655;29;20065;-83
2021/11/29 03:16:16;;;;;;;62.08;33.25;;;;;;;11.66;73.77;92866.72;4896677;29;20040;-81
2021/11/29 03:18:43;;;;;;;30.55;19.27;;;;;;;11.62;73.78;92850.16;4874644;29;20028;-81
2021/11/29 03:21:09;;;;;;;30.67;20.65;;;;;;;11.64;74.26;92850.63;4906276;29;20045;-81
2021/11/29 03:23:34;;;;;;;20.67;13.98;;;;;;;11.64;74.52;92816.78;4888182;29;20032;-81
2021/11/29 03:26:00;;;;;;;20.60;13.70;;;;;;;11.65;74.27;92824.31;4880837;29;20076;-81
2021/11/29 03:28:25;;;;;;;17.95;11.27;;;;;;;11.64;74.19;92835.00;4897038;29;20036;-81
2021/11/29 03:30:51;;;;;;;14.82;9.88;;;;;;;11.67;74.05;92832.59;4878885;29;20036;-81
2021/11/29 03:33:16;;;;;;;17.35;10.18;;;;;;;11.68;73.86;92828.94;4871573;29;20033;-80
2021/11/29 03:35:42;;;;;;;13.98;9.32;;;;;;;11.71;73.97;92841.41;4886644;29;20040;-80
2021/11/29 03:38:08;;;;;;;19.30;10.82;;;;;;;11.78;73.81;92827.22;4895463;29;20484;-80
2021/11/29 03:40:34;;;;;;;19.60;11.25;;;;;;;11.83;73.67;92816.75;4911369;29;20024;-79
2021/11/29 03:43:00;;;;;;;37.47;11.40;;;;;;;11.83;74.00;92812.31;4901164;29;20052;-80
2021/11/29 03:45:25;;;;;;;24.05;14.80;;;;;;;11.80;73.24;92831.13;4894445;29;20056;-80
2021/11/29 03:47:51;;;;;;;11.65;8.55;;;;;;;11.78;73.68;92833.22;4877204;29;20052;-80
2021/11/29 03:50:16;;;;;;;6.22;5.60;;;;;;;11.72;74.14;92839.56;4908749;29;20068;-80
2021/11/29 03:52:42;;;;;;;7.80;3.92;;;;;;;11.66;74.09;92827.69;4893468;29;20056;-80
2021/11/29 03:55:08;;;;;;;3.40;2.60;;;;;;;11.51;73.93;92838.34;4894249;29;20032;-80
2021/11/29 03:57:33;;;;;;;4.85;2.42;;;;;;;11.46;74.44;92838.44;4901183;29;20084;-80
2021/11/29 03:59:59;;;;;;;3.47;2.83;;;;;;;11.51;74.49;92835.75;4895980;29;20033;-81
2021/11/29 04:02:25;;;;;;;7.28;3.30;;;;;;;11.50;74.11;92831.59;4912241;29;20660;-79
2021/11/29 04:04:50;;;;;;;6.57;3.58;;;;;;;11.45;74.84;92829.09;4914886;29;20031;-78
2021/11/29 04:07:15;;;;;;;4.78;2.92;;;;;;;11.41;74.16;92831.50;4922246;29;20069;-79
2021/11/29 04:09:41;;;;;;;4.80;2.92;;;;;;;11.40;73.73;92827.34;4900714;29;20047;-79
2021/11/29 04:12:07;;;;;;;4.72;3.42;;;;;;;11.37;72.54;92817.47;4887524;29;20040;-80
2021/11/29 04:14:33;;;;;;;10.23;3.92;;;;;;;11.29;72.40;92820.75;4895432;29;20508;-79
2021/11/29 04:16:58;;;;;;;2.50;2.20;;;;;;;11.21;71.50;92803.16;4900110;29;20073;-79
2021/11/29 04:19:24;;;;;;;4.15;2.30;;;;;;;11.11;73.10;92772.91;4916865;29;20037;-80
2021/11/29 04:21:49;;;;;;;3.85;2.30;;;;;;;11.09;73.47;92762.78;4889240;29;20051;-81
2021/11/29 04:24:16;;;;;;;7.10;2.60;;;;;;;11.05;73.66;92759.19;4903070;29;20110;-81
2021/11/29 04:26:42;;;;;;;6.28;4.45;;;;;;;11.05;74.33;92737.59;4902254;29;20040;-80
2021/11/29 04:29:18;;;;;;;8.23;5.00;;;;;;;10.92;74.71;92748.75;4902522;29;20048;-82
2021/11/29 04:31:44;;;;;;;7.50;4.20;;;;;;;10.90;75.40;92750.84;4917271;29;20525;-84
2021/11/29 04:34:09;;;;;;;4.88;3.63;;;;;;;10.85;74.83;92758.72;4890632;29;20036;-80
2021/11/29 04:36:35;;;;;;;2.97;2.65;;;;;;;10.88;74.62;92745.16;4915502;29;20043;-80
2021/11/29 04:39:10;;;;;;;3.60;2.95;;;;;;;10.90;73.95;92753.44;4920178;29;20036;-80
2021/11/29 04:41:35;;;;;;;3.83;3.53;;;;;;;10.88;73.85;92758.16;4878379;29;20040;-81
2021/11/29 04:44:01;;;;;;;3.28;3.03;;;;;;;10.77;73.29;92768.72;4916385;29;20044;-80
2021/11/29 04:46:27;;;;;;;4.97;4.25;;;;;;;10.80;73.18;92778.56;4896375;29;20119;-80
2021/11/29 04:48:52;;;;;;;2.38;2.28;;;;;;;10.79;72.42;92782.22;4888789;29;20389;-78
2021/11/29 04:51:18;;;;;;;23.75;16.20;;;;;;;10.80;72.12;92788.97;4895568;29;20036;-81
2021/11/29 04:53:43;;;;;;;12.82;8.85;;;;;;;10.82;72.43;92796.47;4887615;29;20041;-81
2021/11/29 04:56:09;;;;;;;4.13;3.65;;;;;;;10.81;72.65;92795.69;4907391;29;20036;-82
2021/11/29 04:58:34;;;;;;;8.63;6.18;;;;;;;10.90;71.65;92800.25;4921108;29;20056;-82
2021/11/29 05:01:00;;;;;;;41.17;23.73;;;;;;;10.86;71.44;92799.28;4892074;29;20035;-82
2021/11/29 05:03:26;;;;;;;19.38;12.95;;;;;;;10.90;71.43;92805.44;4897797;29;20047;-83
2021/11/29 05:05:51;;;;;;;6.75;5.55;;;;;;;10.89;71.23;92796.88;4895113;29;20067;-82
2021/11/29 05:08:17;;;;;;;5.78;4.43;;;;;;;10.93;70.99;92794.50;4919910;29;20032;-82
2021/11/29 05:10:42;;;;;;;4.65;3.03;;;;;;;10.98;70.39;92799.63;4894720;29;20029;-83
2021/11/29 05:13:08;;;;;;;3.47;2.80;;;;;;;11.06;70.60;92817.19;4900281;29;20032;-82
2021/11/29 05:15:34;;;;;;;9.57;4.43;;;;;;;11.07;70.34;92816.16;4918420;29;20059;-83
2021/11/29 05:18:17;;;;;;;8.95;5.40;;;;;;;11.09;70.56;92827.81;4902990;29;20512;-83
2021/11/29 05:20:43;;;;;;;7.80;4.10;;;;;;;11.11;70.33;92828.31;4916986;29;20044;-83
2021/11/29 05:23:08;;;;;;;8.52;4.30;;;;;;;11.12;69.94;92827.25;4898101;29;20551;-83
2021/11/29 05:25:40;;;;;;;10.05;5.00;;;;;;;11.13;69.43;92834.00;4915319;29;20032;-85
2021/11/29 05:28:06;;;;;;;6.03;3.72;;;;;;;11.18;69.72;92830.53;4911303;29;20064;-83
2021/11/29 05:30:31;;;;;;;8.48;5.03;;;;;;;11.14;69.27;92826.97;4915822;29;20072;-83
2021/11/29 05:32:57;;;;;;;5.03;3.47;;;;;;;11.12;68.93;92844.69;4924339;29;20095;-83
2021/11/29 05:35:25;;;;;;;9.45;4.75;;;;;;;11.13;69.40;92838.41;4901639;29;20047;-84
2021/11/29 05:37:51;;;;;;;9.70;4.60;;;;;;;11.13;68.83;92833.22;4916339;29;20036;-82
2021/11/29 05:40:16;;;;;;;8.82;4.82;;;;;;;11.15;68.60;92841.50;4927478;29;20036;-86
2021/11/29 05:42:46;;;;;;;11.90;4.15;;;;;;;11.18;68.64;92838.34;4917117;29;20028;-88
2021/11/29 05:45:11;;;;;;;10.73;5.88;;;;;;;11.19;68.55;92845.06;4907320;29;20044;-81
2021/11/29 05:47:37;;;;;;;6.40;4.75;;;;;;;11.21;68.48;92850.78;4899628;29;20073;-82
2021/11/29 05:50:06;;;;;;;11.60;7.30;;;;;;;11.23;68.39;92832.31;4922029;29;20116;-80
2021/11/29 05:52:32;;;;;;;12.93;7.20;;;;;;;11.26;68.33;92840.31;4904614;29;20032;-82
2021/11/29 05:54:58;;;;;;;12.90;6.82;;;;;;;11.25;68.45;92835.38;4905947;29;20032;-82
2021/11/29 05:57:23;;;;;;;12.13;7.97;;;;;;;11.28;68.25;92825.19;4888433;29;20063;-82
2021/11/29 05:59:49;;;;;;;10.93;6.60;;;;;;;11.24;67.86;92826.81;4897908;29;20060;-82
2021/11/29 06:02:14;;;;;;;11.13;6.20;;;;;;;11.30;68.18;92823.06;4900974;29;20101;-82
2021/11/29 06:04:40;;;;;;;9.50;6.13;;;;;;;11.35;67.97;92822.19;4902014;29;20091;-82
2021/11/29 06:07:05;;;;;;;6.88;5.13;;;;;;;11.36;67.55;92832.31;4923341;29;20040;-83
2021/11/29 06:09:31;;;;;;;9.10;6.00;;;;;;;11.39;67.50;92836.22;4931947;29;20040;-82
2021/11/29 06:11:56;;;;;;;10.88;6.53;;;;;;;11.48;67.20;92859.75;4926816;29;20100;-82
2021/11/29 06:14:25;;;;;;;10.02;7.03;;;;;;;11.45;67.02;92858.50;4915414;29;20040;-82
2021/11/29 06:16:51;;;;;;;17.45;8.60;;;;;;;11.54;66.78;92858.59;4897661;29;20068;-82
2021/11/29 06:19:17;;;;;;;21.00;11.73;;;;;;;11.68;66.58;92856.81;5120100;23;20048;-82
2021/11/29 06:21:42;;;;;;;18.23;11.45;;;;;;;11.78;65.80;92856.66;4952150;29;20046;-80
2021/11/29 06:24:08;;;;;;;26.35;14.00;;;;;;;11.87;65.74;92856.78;4935863;29;20024;-83
2021/11/29 06:26:33;;;;;;;25.95;14.32;;;;;;;11.95;65.66;92853.53;4902283;29;20032;-83
2021/11/29 06:28:59;;;;;;;15.25;8.68;;;;;;;12.02;65.18;92856.50;4916848;29;20096;-82
2021/11/29 06:31:25;;;;;;;11.38;6.72;;;;;;;12.04;65.35;92857.03;4917946;29;20043;-83
2021/11/29 06:33:50;;;;;;;17.75;8.43;;;;;;;12.03;65.64;92861.44;4886156;29;20524;-83
2021/11/29 06:36:16;;;;;;;28.08;9.60;;;;;;;12.12;65.13;92871.19;4915116;29;20068;-83
2021/11/29 06:38:41;;;;;;;11.18;7.05;;;;;;;12.16;64.99;92879.97;4899980;29;20063;-83
2021/11/29 06:41:07;;;;;;;12.45;7.53;;;;;;;12.18;64.74;92885.66;4901065;29;20040;-82
2021/11/29 06:43:34;;;;;;;13.82;9.15;;;;;;;12.20;64.79;92881.75;4911056;29;20040;-85
2021/11/29 06:45:59;;;;;;;21.20;12.05;;;;;;;12.26;64.66;92900.66;4893040;29;20056;-82
2021/11/29 06:48:25;;;;;;;16.85;9.15;;;;;;;12.28;64.16;92904.50;4931058;29;20048;-84
2021/11/29 06:50:52;;;;;;;16.50;10.60;;;;;;;12.30;64.51;92912.03;4920606;29;20550;-83
2021/11/29 06:53:19;;;;;;;26.38;15.10;;;;;;;12.25;64.47;92919.94;4906153;29;20032;-83
2021/11/29 06:55:46;;;;;;;30.63;15.52;;;;;;;12.23;64.22;92933.28;4921813;29;20060;-83
2021/11/29 06:58:12;;;;;;;30.05;15.82;;;;;;;12.26;64.41;92929.31;4900875;29;20028;-84
2021/11/29 07:00:37;;;;;;;23.02;12.68;;;;;;;12.36;64.50;92936.16;4891382;29;20064;-82
2021/11/29 07:03:03;;;;;;;15.52;9.80;;;;;;;12.44;65.43;92932.91;4910195;29;20039;-82
2021/11/29 07:05:29;;;;;;;12.10;6.65;;;;;;;12.53;65.97;92926.75;4905116;29;20050;-82
2021/11/29 07:07:55;;;;;;;15.30;8.07;;;;;;;12.59;65.99;92941.22;4904331;29;20060;-82
2021/11/29 07:10:28;;;;;;;20.92;12.85;;;;;;;12.66;65.92;92940.81;4888589;29;20036;-81
2021/11/29 07:12:54;;;;;;;28.75;15.73;;;;;;;12.72;66.01;92933.69;4936887;29;20036;-83
2021/11/29 07:15:21;;;;;;;20.90;12.48;;;;;;;12.72;65.82;92955.31;4920677;29;20036;-83
2021/11/29 07:17:46;;;;;;;10.60;6.22;;;;;;;12.72;66.36;92959.78;4903558;29;20060;-82
2021/11/29 07:20:12;;;;;;;9.70;6.05;;;;;;;12.77;65.82;92962.28;4920012;29;20025;-82
2021/11/29 07:22:37;;;;;;;6.53;5.18;;;;;;;12.77;66.25;92960.44;4905002;29;20060;-82
2021/11/29 07:25:04;;;;;;;10.68;6.13;;;;;;;12.81;66.17;92965.84;4920811;29;20068;-82
2021/11/29 07:27:30;;;;;;;12.65;5.97;;;;;;;12.81;66.35;92968.44;4920818;29;20036;-82
2021/11/29 07:29:55;;;;;;;8.98;5.88;;;;;;;12.88;66.64;92964.41;4905266;29;20036;-84
2021/11/29 07:32:21;;;;;;;9.63;6.00;;;;;;;12.89;66.73;92944.31;4919153;29;20033;-84
2021/11/29 07:34:47;;;;;;;13.43;8.30;;;;;;;12.60;68.16;92960.25;4919960;29;20043;-83
2021/11/29 07:37:15;;;;;;;21.98;10.57;;;;;;;12.33;69.15;92964.34;4904779;29;20084;-82
2021/11/29 07:39:45;;;;;;;16.52;9.50;;;;;;;12.25;69.10;92969.47;4920674;29;20052;-83
2021/11/29 07:42:10;;;;;;;17.95;10.32;;;;;;;12.28;69.41;92980.09;4935745;29;20040;-83
2021/11/29 07:44:36;;;;;;;17.48;11.00;;;;;;;12.33;69.31;92966.19;4920891;29;20040;-83
2021/11/29 07:47:01;;;;;;;17.33;10.75;;;;;;;12.37;68.76;92969.00;4905458;29;20032;-83
2021/11/29 07:49:27;;;;;;;14.32;10.02;;;;;;;12.36;68.75;92973.41;4905607;29;20028;-83
2021/11/29 07:51:53;;;;;;;14.60;8.10;;;;;;;12.35;67.75;92990.13;4920749;29;20043;-82
2021/11/29 07:54:19;;;;;;;11.38;5.38;;;;;;;12.37;68.25;92989.88;4905887;29;20036;-83
2021/11/29 07:56:45;;;;;;;10.30;5.63;;;;;;;12.21;68.66;92978.91;4905424;29;20036;-82
2021/11/29 07:59:10;;;;;;;9.88;5.60;;;;;;;11.73;70.75;92971.31;4904827;29;20024;-83
2021/11/29 08:01:38;;;;;;;14.60;7.93;;;;;;;11.66;71.80;92992.47;4920619;29;20040;-82
2021/11/29 08:04:04;;;;;;;8.13;5.28;;;;;;;11.55;70.73;92987.69;4905666;29;20047;-82
2021/11/29 08:06:29;;;;;;;6.13;5.07;;;;;;;11.47;71.22;92998.75;4920256;29;20068;-82
2021/11/29 08:08:55;;;;;;;8.57;5.18;;;;;;;11.40;71.32;92992.06;4920694;29;20044;-82
2021/11/29 08:11:23;;;;;;;8.55;3.70;;;;;;;11.34;69.45;93003.59;4905260;29;20079;-82
2021/11/29 08:13:49;;;;;;;7.40;3.30;;;;;;;11.25;68.90;92987.06;4921238;29;20051;-83
2021/11/29 08:16:15;;;;;;;2.88;2.38;;;;;;;11.11;68.36;92981.00;4934888;29;20028;-83
2021/11/29 08:18:40;;;;;;;2.17;1.90;;;;;;;10.95;68.38;92987.44;4989657;23;20097;-82
2021/11/29 08:21:07;;;;;;;3.22;2.10;;;;;;;10.60;70.39;93001.59;4899577;29;20068;-84
2021/11/29 08:23:32;;;;;;;4.47;2.08;;;;;;;10.37;69.10;93010.91;4901376;29;20623;-82
2021/11/29 08:25:58;;;;;;;6.13;3.30;;;;;;;10.01;70.45;93036.38;4907559;29;20088;-82
2021/11/29 08:28:23;;;;;;;10.02;6.00;;;;;;;9.87;72.22;93093.31;4915734;29;20086;-83
2021/11/29 08:30:49;;;;;;;;;;;;;;;9.69;70.16;93132.88;4908378;29;20025;-82
2021/11/29 08:33:14;;;;;;;;;;;;;;;9.28;70.91;93130.44;4903365;29;19928;-84
2021/11/29 08:35:40;;;;;;;;;;;;;;;8.89;72.70;93136.22;4878642;29;19940;-83
2021/11/29 08:38:08;;;;;;;;;;;;;;;8.56;75.52;93157.50;4893144;29;19935;-86
2021/11/29 08:40:34;;;;;;;;;;;;;;;8.11;74.83;93166.75;4898052;29;19923;-83
2021/11/29 08:43:06;;;;;;;;;;;;;;;7.83;76.52;93163.59;4891450;29;19920;-83
2021/11/29 08:45:33;;;;;;;;;;;;;;;7.66;75.72;93173.38;4889429;29;19930;-83
2021/11/29 08:47:59;;;;;;;2.55;2.35;;;;;;;7.51;76.51;93179.25;4887349;29;20352;-83
2021/11/29 08:50:25;;;;;;;4.15;3.53;;;;;;;7.44;77.46;93183.09;4888937;29;20037;-83
2021/11/29 08:52:50;;;;;;;4.90;4.43;;;;;;;7.42;76.60;93201.44;4879351;29;20033;-83
2021/11/29 08:55:16;;;;;;;4.50;4.13;;;;;;;7.56;75.12;93201.75;4885950;29;20448;-83
2021/11/29 08:57:42;;;;;;;3.80;2.80;;;;;;;7.73;73.51;93206.75;4901668;29;20792;-83
2021/11/29 09:00:09;;;;;;;4.67;3.57;;;;;;;7.99;72.34;93225.75;4897397;29;20419;-84
2021/11/29 09:02:35;;;;;;;6.07;5.47;;;;;;;8.16;71.29;93215.19;4885238;29;20416;-83
2021/11/29 09:05:01;;;;;;;10.23;8.97;;;;;;;8.38;70.20;93223.53;4901726;29;20420;-83
2021/11/29 09:07:26;;;;;;;12.35;9.30;;;;;;;8.49;72.03;93238.06;4896263;29;20104;-84
2021/11/29 09:09:52;;;;;;;25.10;15.32;;;;;;;8.49;70.08;93242.47;4901293;29;20041;-81
2021/11/29 09:12:17;;;;;;;16.08;10.38;;;;;;;8.42;68.86;93255.66;4877499;29;20510;-84
2021/11/29 09:14:43;;;;;;;12.98;8.25;;;;;;;8.35;69.13;93266.25;4889667;29;20029;-82
2021/11/29 09:17:08;;;;;;;17.05;10.68;;;;;;;8.26;71.42;93262.56;4887513;29;20096;-81
2021/11/29 09:19:34;;;;;;;19.52;10.75;;;;;;;8.36;71.13;93256.69;4902226;29;20514;-80
2021/11/29 09:22:00;;;;;;;19.88;12.77;;;;;;;8.35;69.44;93253.31;4888469;29;20049;-79
2021/11/29 09:24:25;;;;;;;26.15;14.88;;;;;;;8.38;70.32;93249.44;4902958;29;20100;-82
2021/11/29 09:26:51;;;;;;;26.83;18.27;;;;;;;8.35;70.33;93268.84;4902618;29;20033;-81
2021/11/29 09:29:16;;;;;;;25.80;18.77;;;;;;;8.34;69.83;93280.25;4897859;29;20033;-81
2021/11/29 09:31:42;;;;;;;18.27;12.45;;;;;;;8.38;71.03;93275.34;4880927;29;20509;-83
2021/11/29 09:34:07;;;;;;;22.13;11.05;;;;;;;8.40;70.11;93258.50;4898309;29;20417;-83
2021/11/29 09:36:33;;;;;;;;;;;;;;;8.49;70.14;93245.06;4900970;29;20051;-83
2021/11/29 09:38:58;;;;;;;;;;;;;;;8.44;68.01;93251.00;4882937;29;19955;-83
2021/11/29 09:41:26;;;;;;;;;;;;;;;8.41;71.36;93262.66;4890575;29;19926;-83
2021/11/29 09:43:51;;;;;;;;;;;;;;;8.39;69.39;93262.13;4885797;29;19923;-82
2021/11/29 09:46:17;;;;;;;;;;;;;;;8.29;68.95;93262.06;4893539;29;19926;-82
2021/11/29 09:48:42;;;;;;;;;;;;;;;8.31;71.02;93270.38;4899307;29;19923;-82
2021/11/29 09:51:07;;;;;;;;;;;;;;;8.36;70.40;93273.00;4892344;29;19926;-83
2021/11/29 09:53:33;;;;;;;;;;;;;;;8.37;69.64;93259.00;4881211;29;19926;-83
2021/11/29 09:56:01;;;;;;;;;;;;;;;8.38;69.63;93268.34;4880949;29;20006;-83
2021/11/29 09:58:27;;;;;;;;;;;;;;;8.41;69.03;93280.00;4874867;29;19923;-83
2021/11/29 10:00:54;;;;;;;;;;;;;;;8.33;67.98;93268.31;4883117;29;20527;-84
2021/11/29 10:03:19;;;;;;;;;;;;;;;8.20;69.27;93261.00;4873856;29;19919;-84
2021/11/29 10:05:44;;;;;;;;;;;;;;;8.08;69.51;93265.63;4879019;29;19927;-84
2021/11/29 10:08:30;;;;;;;;;;;;;;;8.05;70.26;93261.75;4880907;29;19962;-84
2021/11/29 10:10:57;;;;;;;;;;;;;;;8.11;70.52;93254.75;4881538;29;20440;-84
2021/11/29 10:16:29;;;;;;;;;;;;;;;8.07;70.50;93258.91;4880584;29;20427;-84
2021/11/29 10:18:54;;;;;;;;;;;;;;;8.08;70.82;93265.63;4881117;29;20014;-84
2021/11/29 10:21:19;;;;;;;;;;;;;;;8.10;70.02;93258.38;4881588;29;19999;-84
2021/11/29 10:23:49;;;;;;;;;;;;;;;8.09;70.65;93244.66;4883513;29;19923;-84
2021/11/29 10:26:17;;;;;;;;;;;;;;;8.12;69.57;93235.59;4882146;29;19931;-84
2021/11/29 10:29:03;;;;;;;;;;;;;;;8.13;70.17;93247.50;4882994;29;19959;-84
2021/11/29 10:31:32;;;;;;;;;;;;;;;8.10;70.00;93253.19;4882257;29;20013;-85
2021/11/29 10:33:57;;;;;;;;;;;;;;;8.08;69.28;93243.09;4883790;29;19920;-85
2021/11/29 10:36:23;;;;;;;;;;;;;;;8.10;69.35;93232.50;4882846;29;19976;-84
2021/11/29 10:38:52;;;;;;;;;;;;;;;8.07;69.31;93230.41;4889524;29;19942;-83
2021/11/29 10:41:25;;;;;;;;;;;;;;;8.10;68.59;93227.31;4894733;29;19948;-83
2021/11/29 10:43:50;;;;;;;;;;;;;;;8.14;70.06;93218.03;4895211;29;19919;-84
2021/11/29 10:46:25;;;;;;;;;;;;;;;8.21;69.14;93228.91;4894157;29;19930;-84
2021/11/29 10:48:50;;;;;;;;;;;;;;;8.25;68.67;93204.06;4865425;29;19979;-85
2021/11/29 10:51:17;;;;;;;;;;;;;;;8.23;68.49;93203.53;4883615;29;19974;-84
2021/11/29 10:53:49;;;;;;;;;;;;;;;8.25;69.01;93203.28;4886270;29;20277;-84
2021/11/29 10:56:21;;;;;;;;;;;;;;;8.28;67.54;93213.13;4869276;29;19955;-84
2021/11/29 10:58:48;;;;;;;;;;;;;;;8.30;67.85;93205.91;4881719;29;19922;-83
2021/11/29 11:01:17;;;;;;;;;;;;;;;8.34;68.27;93220.69;4881786;29;19919;-84
2021/11/29 11:03:49;;;;;;;;;;;;;;;8.37;67.67;93233.13;4864941;29;19923;-85
2021/11/29 11:06:14;;;;;;;;;;;;;;;8.42;69.32;93235.72;4888551;29;19931;-85
2021/11/29 11:08:39;;;;;;;;;;;;;;;8.48;68.70;93222.78;4882864;29;20311;-84
2021/11/29 11:11:25;;;;;;;;;;;;;;;8.58;68.91;93222.78;4881816;29;20372;-84
2021/11/29 11:14:04;;;;;;;;;;;;;;;8.66;67.93;93235.22;4869729;29;19979;-84
2021/11/29 11:16:45;;;;;;;;;;;;;;;8.78;69.25;93235.75;4881054;29;19916;-85
2021/11/29 11:19:11;;;;;;;;;;;;;;;8.89;68.59;93224.34;4896742;29;19942;-84
2021/11/29 11:21:37;;;;;;;;;;;;;;;8.88;68.52;93230.56;4881221;29;20396;-85
2021/11/29 11:24:21;;;;;;;;;;;;;;;9.06;67.75;93231.09;4888303;29;19920;-84
2021/11/29 11:26:47;;;;;;;;;;;;;;;9.15;67.84;93219.16;4895670;29;20533;-85
2021/11/29 11:29:30;;;;;;;;;;;;;;;9.22;68.99;93211.88;4880367;29;19919;-83
2021/11/29 11:32:06;;;;;;;;;;;;;;;9.26;67.91;93212.91;4881181;29;20320;-84
2021/11/29 11:34:35;;;;;;;;;;;;;;;9.26;67.36;93205.13;4873974;29;19953;-85
2021/11/29 11:37:00;;;;;;;;;;;;;;;9.24;67.54;93199.41;4865970;29;20391;-84
2021/11/29 11:39:26;;;;;;;;;;;;;;;9.32;67.38;93197.06;4887789;29;19920;-84
2021/11/29 11:41:51;;;;;;;16.25;9.88;;;;;;;9.40;66.67;93208.72;4881697;29;19920;-83
2021/11/29 11:44:16;;;;;;;;;;;;;;;9.41;67.29;93212.88;4899081;29;20040;-88